createdAt,value
2018-06-07T00:00:58.292Z,99.99
2018-06-07T00:01:58.580Z,99.99
2018-06-07T00:02:58.231Z,99.99
2018-06-07T00:03:58.208Z,99.99
2018-06-07T00:04:58.194Z,99.99
2018-06-07T00:05:58.182Z,99.99
2018-06-07T00:06:58.216Z,99.99
2018-06-07T00:07:58.507Z,99.99
2018-06-07T00:08:58.188Z,99.99
2018-06-07T00:09:58.127Z,99.99
2018-06-07T00:10:58.113Z,99.99
2018-06-07T00:12:58.126Z,99.99
2018-06-07T00:13:58.124Z,99.99
2018-06-07T00:14:58.408Z,99.99
2018-06-07T00:15:58.042Z,99.99
2018-06-07T00:16:58.022Z,99.99
2018-06-07T00:17:58.012Z,99.99
2018-06-07T00:18:57.993Z,99.99
2018-06-07T00:19:58.051Z,99.99
2018-06-07T00:20:58.327Z,99.99
2018-06-07T00:21:57.958Z,99.99
2018-06-07T00:22:57.945Z,99.99
2018-06-07T00:23:57.931Z,99.99
2018-06-07T00:24:57.919Z,99.99
2018-06-07T00:25:58.048Z,99.99
2018-06-07T00:26:58.235Z,99.99
2018-06-07T00:27:57.924Z,99.99
2018-06-07T00:29:57.850Z,99.99
2018-06-07T00:30:57.853Z,99.99
2018-06-07T00:31:57.820Z,99.99
2018-06-07T00:32:58.147Z,99.99
2018-06-07T00:33:57.835Z,99.99
2018-06-07T00:34:57.779Z,99.99
2018-06-07T00:36:57.746Z,99.99
2018-06-07T00:37:57.730Z,99.99
2018-06-07T00:38:58.078Z,99.99
2018-06-07T00:39:57.763Z,99.99
2018-06-07T00:40:57.689Z,99.99
2018-06-07T00:41:57.684Z,99.99
2018-06-07T00:42:57.963Z,99.99
2018-06-07T00:43:57.652Z,99.99
2018-06-07T00:44:57.982Z,99.99
2018-06-07T00:45:58.043Z,99.99
2018-06-07T00:46:57.611Z,99.99
2018-06-07T00:47:57.594Z,99.99
2018-06-07T00:48:57.583Z,99.99
2018-06-07T00:49:57.622Z,99.99
2018-06-07T00:50:57.605Z,99.99
2018-06-07T00:51:57.883Z,99.99
2018-06-07T00:52:57.518Z,99.99
2018-06-07T00:53:57.515Z,99.99
2018-06-07T00:54:57.499Z,99.99
2018-06-07T00:55:57.490Z,99.99
2018-06-07T00:56:57.518Z,99.99
2018-06-07T00:57:57.497Z,99.99
2018-06-07T00:58:57.783Z,99.99
2018-06-07T00:59:57.429Z,99.99
2018-06-07T01:00:57.407Z,99.99
2018-06-07T01:01:57.402Z,99.99
2018-06-07T01:02:57.431Z,99.99
2018-06-07T01:03:57.423Z,99.99
2018-06-07T01:04:57.404Z,99.99
2018-06-07T01:05:57.634Z,99.99
2018-06-07T01:06:57.321Z,99.99
2018-06-07T01:07:57.307Z,99.99
2018-06-07T01:09:57.324Z,99.99
2018-06-07T01:10:57.268Z,99.99
2018-06-07T01:11:57.253Z,99.99
2018-06-07T01:12:57.552Z,99.99
2018-06-07T01:13:57.225Z,99.99
2018-06-07T01:14:57.663Z,99.99
2018-06-07T01:15:57.187Z,99.99
2018-06-07T01:16:57.174Z,99.99
2018-06-07T01:17:57.172Z,99.99
2018-06-07T01:18:57.145Z,99.99
2018-06-07T01:19:57.432Z,99.99
2018-06-07T01:20:57.174Z,99.99
2018-06-07T01:21:57.152Z,99.99
2018-06-07T01:22:57.145Z,99.99
2018-06-07T01:23:57.084Z,99.99
2018-06-07T01:25:57.347Z,99.99
2018-06-07T01:27:57.275Z,99.99
2018-06-07T01:28:56.998Z,99.99
2018-06-07T01:29:56.984Z,99.99
2018-06-07T01:30:56.971Z,99.99
2018-06-07T01:31:56.966Z,99.99
2018-06-07T01:32:57.191Z,99.99
2018-06-07T01:33:56.989Z,99.99
2018-06-07T01:34:56.978Z,99.99
2018-06-07T01:35:56.969Z,99.99
2018-06-07T01:37:56.870Z,99.99
2018-06-07T01:38:56.867Z,99.99
2018-06-07T01:39:57.202Z,99.99
2018-06-07T01:40:56.890Z,99.99
2018-06-07T01:42:56.814Z,99.99
2018-06-07T01:43:56.971Z,99.99
2018-06-07T01:44:56.774Z,99.99
2018-06-07T01:45:57.108Z,99.99
2018-06-07T01:46:56.790Z,99.99
2018-06-07T01:47:56.727Z,99.99
2018-06-07T01:48:56.705Z,99.99
2018-06-07T01:49:56.710Z,99.99
2018-06-07T01:50:56.683Z,99.99
2018-06-07T01:51:57.026Z,99.99
2018-06-07T01:52:56.696Z,99.99
2018-06-07T01:53:56.839Z,99.99
2018-06-07T01:54:56.614Z,99.99
2018-06-07T01:55:56.608Z,99.85
2018-06-07T01:56:56.595Z,99.99
2018-06-07T01:57:56.881Z,99.99
2018-06-07T01:58:56.563Z,99.99
2018-06-07T01:59:56.597Z,99.99
2018-06-07T02:00:56.584Z,99.99
2018-06-07T02:01:56.766Z,99.99
2018-06-07T02:02:56.497Z,99.99
2018-06-07T02:03:56.795Z,99.99
2018-06-07T02:04:56.474Z,99.99
2018-06-07T02:05:56.455Z,99.71
2018-06-07T02:06:56.435Z,99.99
2018-06-07T02:07:56.471Z,99.99
2018-06-07T02:08:56.466Z,99.99
2018-06-07T02:09:56.747Z,99.99
2018-06-07T02:10:56.384Z,99.99
2018-06-07T02:11:56.360Z,99.62
2018-06-07T02:12:56.346Z,99.14
2018-06-07T02:13:56.334Z,99.99
2018-06-07T02:14:56.366Z,99.99
2018-06-07T02:15:56.661Z,99.99
2018-06-07T02:17:56.279Z,99.14
2018-06-07T02:18:56.254Z,99.99
2018-06-07T02:19:56.240Z,99.99
2018-06-07T02:20:56.377Z,99.99
2018-06-07T02:21:56.265Z,99.62
2018-06-07T02:22:56.549Z,99.99
2018-06-07T02:23:56.187Z,99.99
2018-06-07T02:24:56.168Z,99.99
2018-06-07T02:25:56.161Z,99.99
2018-06-07T02:27:56.177Z,98.85
2018-06-07T02:28:56.157Z,99.52
2018-06-07T02:29:56.436Z,97.75
2018-06-07T02:30:58.528Z,99.90
2018-06-07T02:31:57.088Z,98.52
2018-06-07T02:32:58.163Z,99.14
2018-06-07T02:33:57.280Z,99.71
2018-06-07T02:34:56.066Z,99.71
2018-06-07T02:35:55.999Z,99.99
2018-06-07T02:36:56.289Z,99.99
2018-06-07T02:37:55.976Z,99.99
2018-06-07T02:38:55.953Z,99.80
2018-06-07T02:39:56.059Z,98.47
2018-06-07T02:40:55.974Z,96.80
2018-06-07T02:41:55.912Z,98.13
2018-06-07T02:42:55.894Z,96.32
2018-06-07T02:43:56.186Z,96.51
2018-06-07T02:44:55.854Z,95.46
2018-06-07T02:46:55.875Z,96.98
2018-06-07T02:47:55.864Z,95.56
2018-06-07T02:48:55.797Z,97.18
2018-06-07T02:49:55.784Z,98.13
2018-06-07T02:50:56.061Z,97.27
2018-06-07T02:51:55.759Z,98.32
2018-06-07T02:53:55.771Z,96.98
2018-06-07T02:54:55.749Z,96.51
2018-06-07T02:55:55.683Z,95.56
2018-06-07T02:57:55.960Z,99.99
2018-06-07T02:58:55.691Z,98.03
2018-06-07T02:59:55.678Z,96.22
2018-06-07T03:00:55.662Z,98.32
2018-06-07T03:01:55.592Z,98.03
2018-06-07T03:02:55.578Z,96.32
2018-06-07T03:03:55.559Z,95.94
2018-06-07T03:04:55.891Z,98.32
2018-06-07T03:05:55.594Z,99.66
2018-06-07T03:07:55.496Z,96.89
2018-06-07T03:08:55.481Z,98.03
2018-06-07T03:10:55.804Z,95.98
2018-06-07T03:11:55.487Z,95.98
2018-06-07T03:12:55.425Z,95.84
2018-06-07T03:13:55.414Z,95.79
2018-06-07T03:14:55.388Z,95.70
2018-06-07T03:15:55.376Z,96.66
2018-06-07T03:16:55.714Z,96.75
2018-06-07T03:17:55.393Z,97.22
2018-06-07T03:18:55.332Z,99.42
2018-06-07T03:19:55.312Z,97.71
2018-06-07T03:20:55.291Z,99.32
2018-06-07T03:21:55.287Z,99.85
2018-06-07T03:22:55.467Z,97.85
2018-06-07T03:23:55.308Z,98.99
2018-06-07T03:24:55.287Z,99.99
2018-06-07T03:25:55.214Z,99.99
2018-06-07T03:26:55.204Z,99.08
2018-06-07T03:27:55.196Z,99.99
2018-06-07T03:28:55.474Z,99.76
2018-06-07T03:29:55.206Z,99.47
2018-06-07T03:30:55.193Z,99.99
2018-06-07T03:31:55.170Z,98.42
2018-06-07T03:32:55.106Z,98.99
2018-06-07T03:33:55.084Z,99.99
2018-06-07T03:34:55.370Z,99.99
2018-06-07T03:36:55.095Z,98.23
2018-06-07T03:37:55.076Z,99.99
2018-06-07T03:38:55.020Z,99.66
2018-06-07T03:39:55.010Z,97.47
2018-06-07T03:40:55.286Z,98.23
2018-06-07T03:41:54.969Z,96.89
2018-06-07T03:42:55.061Z,98.99
2018-06-07T03:43:54.985Z,98.23
2018-06-07T03:44:54.970Z,95.75
2018-06-07T03:45:54.904Z,99.08
2018-06-07T03:46:55.187Z,99.99
2018-06-07T03:47:54.869Z,99.47
2018-06-07T03:48:54.900Z,99.99
2018-06-07T03:49:55.094Z,96.56
2018-06-07T03:50:54.819Z,99.99
2018-06-07T03:51:54.803Z,99.99
2018-06-07T03:52:54.793Z,99.99
2018-06-07T03:54:55.080Z,99.90
2018-06-07T03:55:54.847Z,99.99
2018-06-07T03:56:54.780Z,99.99
2018-06-07T03:57:54.728Z,99.99
2018-06-07T03:58:54.699Z,99.99
2018-06-07T03:59:54.680Z,99.99
2018-06-07T04:00:54.755Z,99.99
2018-06-07T04:01:55.105Z,99.99
2018-06-07T04:02:54.641Z,99.52
2018-06-07T04:03:54.622Z,99.99
2018-06-07T04:04:54.600Z,99.99
2018-06-07T04:05:54.637Z,99.99
2018-06-07T04:06:54.628Z,99.99
2018-06-07T04:07:54.615Z,99.90
2018-06-07T04:08:54.839Z,99.62
2018-06-07T04:09:54.531Z,98.08
2018-06-07T04:10:54.515Z,99.90
2018-06-07T04:11:54.501Z,99.99
2018-06-07T04:12:54.528Z,98.57
2018-06-07T04:13:54.515Z,99.99
2018-06-07T04:14:54.450Z,99.33
2018-06-07T04:15:54.730Z,99.99
2018-06-07T04:16:54.420Z,99.99
2018-06-07T04:17:54.407Z,99.99
2018-06-07T04:19:54.425Z,99.99
2018-06-07T04:20:54.357Z,99.99
2018-06-07T04:21:54.340Z,99.99
2018-06-07T04:22:54.624Z,99.99
2018-06-07T04:23:54.312Z,99.99
2018-06-07T04:24:54.361Z,99.99
2018-06-07T04:25:54.335Z,99.99
2018-06-07T04:26:54.266Z,99.99
2018-06-07T04:27:54.252Z,99.99
2018-06-07T04:28:54.229Z,99.99
2018-06-07T04:29:54.514Z,99.99
2018-06-07T04:30:54.250Z,99.99
2018-06-07T04:31:54.236Z,99.99
2018-06-07T04:32:54.228Z,99.99
2018-06-07T04:33:54.164Z,99.99
2018-06-07T04:34:54.138Z,99.99
2018-06-07T04:35:54.136Z,99.99
2018-06-07T04:36:54.413Z,99.99
2018-06-07T04:37:54.191Z,99.99
2018-06-07T04:38:54.128Z,99.99
2018-06-07T04:39:54.119Z,99.99
2018-06-07T04:40:57.087Z,99.99
2018-06-07T04:41:54.044Z,99.99
2018-06-07T04:42:54.328Z,99.99
2018-06-07T04:43:54.099Z,99.99
2018-06-07T04:44:54.095Z,99.99
2018-06-07T04:45:53.980Z,99.99
2018-06-07T04:46:53.967Z,99.99
2018-06-07T04:47:53.951Z,99.99
2018-06-07T04:48:54.236Z,99.99
2018-06-07T04:49:53.973Z,99.99
2018-06-07T04:50:53.952Z,99.99
2018-06-07T04:51:53.887Z,99.99
2018-06-07T04:52:53.875Z,99.99
2018-06-07T04:53:53.860Z,99.99
2018-06-07T04:54:54.148Z,99.99
2018-06-07T04:55:54.220Z,99.99
2018-06-07T04:56:53.933Z,99.99
2018-06-07T04:57:53.808Z,99.99
2018-06-07T04:58:53.789Z,99.99
2018-06-07T04:59:53.771Z,99.99
2018-06-07T05:00:54.076Z,99.99
2018-06-07T05:01:53.790Z,99.99
2018-06-07T05:02:53.784Z,99.99
2018-06-07T05:03:53.768Z,99.99
2018-06-07T05:04:53.699Z,99.99
2018-06-07T05:05:53.688Z,99.99
2018-06-07T05:06:53.753Z,99.99
2018-06-07T05:07:53.702Z,99.99
2018-06-07T05:08:53.693Z,99.99
2018-06-07T05:09:53.633Z,99.99
2018-06-07T05:10:53.625Z,99.99
2018-06-07T05:11:53.612Z,99.99
2018-06-07T05:12:53.884Z,99.99
2018-06-07T05:13:53.630Z,99.99
2018-06-07T05:14:53.613Z,99.99
2018-06-07T05:16:53.531Z,99.99
2018-06-07T05:17:53.514Z,99.99
2018-06-07T05:18:53.507Z,99.99
2018-06-07T05:19:53.838Z,99.99
2018-06-07T05:20:53.576Z,99.99
2018-06-07T05:21:53.563Z,99.99
2018-06-07T05:22:53.656Z,99.99
2018-06-07T05:23:53.430Z,99.99
2018-06-07T05:24:53.459Z,99.99
2018-06-07T05:26:00.026Z,99.99
2018-06-07T05:26:53.703Z,99.99
2018-06-07T05:27:53.425Z,99.99
2018-06-07T05:28:53.356Z,99.99
2018-06-07T05:29:53.364Z,99.99
2018-06-07T05:30:53.326Z,99.99
2018-06-07T05:31:53.319Z,99.99
2018-06-07T05:32:53.647Z,99.99
2018-06-07T05:33:53.343Z,99.99
2018-06-07T05:34:53.279Z,99.99
2018-06-07T05:35:53.259Z,99.99
2018-06-07T05:36:53.249Z,99.99
2018-06-07T05:37:53.227Z,99.99
2018-06-07T05:38:53.292Z,98.43
2018-06-07T05:39:53.760Z,97.61
2018-06-07T05:40:53.186Z,99.99
2018-06-07T05:41:53.175Z,99.99
2018-06-07T05:42:53.226Z,99.99
2018-06-07T05:43:53.159Z,91.10
2018-06-07T05:44:53.144Z,98.10
2018-06-07T05:45:53.220Z,99.99
2018-06-07T05:46:53.461Z,98.19
2018-06-07T05:47:53.101Z,99.99
2018-06-07T05:48:53.085Z,98.28
2018-06-07T05:49:53.063Z,99.15
2018-06-07T05:50:53.059Z,87.17
2018-06-07T05:51:53.209Z,88.80
2018-06-07T05:52:53.080Z,86.25
2018-06-07T05:53:54.792Z,81.85
2018-06-07T05:54:53.008Z,82.81
2018-06-07T05:55:53.010Z,92.77
2018-06-07T05:56:52.983Z,88.27
2018-06-07T05:58:53.017Z,96.32
2018-06-07T05:59:52.982Z,97.76
2018-06-07T06:00:53.215Z,96.51
2018-06-07T06:01:52.904Z,92.68
2018-06-07T06:02:52.945Z,90.47
2018-06-07T06:03:52.882Z,89.42
2018-06-07T06:04:53.064Z,86.25
2018-06-07T06:05:52.913Z,85.78
2018-06-07T06:06:53.138Z,82.85
2018-06-07T06:07:52.830Z,84.09
2018-06-07T06:08:52.825Z,91.38
2018-06-07T06:09:53.007Z,84.95
2018-06-07T06:11:52.848Z,79.01
2018-06-07T06:12:53.266Z,79.68
2018-06-07T06:13:52.753Z,86.58
2018-06-07T06:14:52.739Z,78.92
2018-06-07T06:15:52.728Z,80.45
2018-06-07T06:16:52.711Z,83.91
2018-06-07T06:17:52.707Z,78.38
2018-06-07T06:18:52.743Z,87.55
2018-06-07T06:19:53.432Z,84.00
2018-06-07T06:20:52.678Z,86.92
2018-06-07T06:21:52.664Z,75.79
2018-06-07T06:22:52.637Z,81.84
2018-06-07T06:23:52.918Z,74.26
2018-06-07T06:24:52.828Z,83.56
2018-06-07T06:25:52.651Z,86.15
2018-06-07T06:26:52.830Z,80.49
2018-06-07T06:27:52.604Z,76.46
2018-06-07T06:28:52.563Z,79.53
2018-06-07T06:29:52.848Z,79.05
2018-06-07T06:30:52.537Z,84.33
2018-06-07T06:31:52.587Z,76.07
2018-06-07T06:32:52.554Z,74.77
2018-06-07T06:33:52.492Z,76.02
2018-06-07T06:34:52.484Z,82.64
2018-06-07T06:35:52.466Z,71.51
2018-06-07T06:36:53.013Z,71.41
2018-06-07T06:37:52.595Z,68.91
2018-06-07T06:38:52.428Z,72.95
2018-06-07T06:39:52.416Z,72.47
2018-06-07T06:40:52.413Z,73.33
2018-06-07T06:41:52.492Z,67.13
2018-06-07T06:42:52.829Z,71.22
2018-06-07T06:43:52.375Z,75.63
2018-06-07T06:44:52.357Z,78.75
2018-06-07T06:45:52.393Z,73.08
2018-06-07T06:47:52.369Z,67.80
2018-06-07T06:48:52.669Z,69.14
2018-06-07T06:49:52.300Z,64.82
2018-06-07T06:50:52.454Z,66.93
2018-06-07T06:51:52.667Z,67.13
2018-06-07T06:52:52.272Z,62.52
2018-06-07T06:53:52.326Z,64.72
2018-06-07T06:54:54.269Z,65.69
2018-06-07T06:55:52.260Z,62.42
2018-06-07T06:56:52.211Z,63.19
2018-06-07T06:57:52.200Z,66.84
2018-06-07T06:58:52.194Z,64.92
2018-06-07T06:59:52.186Z,63.89
2018-06-07T07:00:52.511Z,66.20
2018-06-07T07:01:52.552Z,64.09
2018-06-07T07:02:52.157Z,64.09
2018-06-07T07:03:52.128Z,62.07
2018-06-07T07:04:52.121Z,63.02
2018-06-07T07:05:52.107Z,63.32
2018-06-07T07:06:52.099Z,62.48
2018-06-07T07:07:52.135Z,63.06
2018-06-07T07:08:52.128Z,64.60
2018-06-07T07:09:52.134Z,62.68
2018-06-07T07:10:52.053Z,62.29
2018-06-07T07:11:52.033Z,64.05
2018-06-07T07:12:52.327Z,60.59
2018-06-07T07:13:52.275Z,62.13
2018-06-07T07:14:52.010Z,62.03
2018-06-07T07:15:51.985Z,62.71
2018-06-07T07:16:51.973Z,60.69
2018-06-07T07:17:51.966Z,59.44
2018-06-07T07:18:51.950Z,61.65
2018-06-07T07:19:52.452Z,60.04
2018-06-07T07:20:51.934Z,63.41
2018-06-07T07:21:51.920Z,61.77
2018-06-07T07:22:51.919Z,60.33
2018-06-07T07:23:52.300Z,59.66
2018-06-07T07:24:52.168Z,56.87
2018-06-07T07:25:52.226Z,57.45
2018-06-07T07:26:52.228Z,58.98
2018-06-07T07:27:52.009Z,58.24
2018-06-07T07:28:51.840Z,58.24
2018-06-07T07:29:51.831Z,57.21
2018-06-07T07:30:51.815Z,55.87
2018-06-07T07:31:52.153Z,55.02
2018-06-07T07:32:51.843Z,55.05
2018-06-07T07:33:51.831Z,52.45
2018-06-07T07:34:51.780Z,51.51
2018-06-07T07:35:51.825Z,50.38
2018-06-07T07:36:51.758Z,50.11
2018-06-07T07:37:52.275Z,50.52
2018-06-07T07:39:51.922Z,48.03
2018-06-07T07:40:51.863Z,46.70
2018-06-07T07:41:52.086Z,46.42
2018-06-07T07:42:51.762Z,46.53
2018-06-07T07:43:51.998Z,45.18
2018-06-07T07:44:51.674Z,45.57
2018-06-07T07:45:51.764Z,44.98
2018-06-07T07:46:51.714Z,45.30
2018-06-07T07:47:51.654Z,44.81
2018-06-07T07:48:51.647Z,45.42
2018-06-07T07:49:51.654Z,44.74
2018-06-07T07:50:51.932Z,43.48
2018-06-07T07:51:51.673Z,43.99
2018-06-07T07:52:51.661Z,44.18
2018-06-07T07:53:51.652Z,42.24
2018-06-07T07:54:51.593Z,40.69
2018-06-07T07:55:51.578Z,42.34
2018-06-07T07:56:51.874Z,43.13
2018-06-07T07:57:51.614Z,41.56
2018-06-07T07:58:51.611Z,42.07
2018-06-07T07:59:51.553Z,42.94
2018-06-07T08:00:51.999Z,41.39
2018-06-07T08:01:51.690Z,42.29
2018-06-07T08:02:51.897Z,41.51
2018-06-07T08:03:52.577Z,41.33
2018-06-07T08:04:51.698Z,41.53
2018-06-07T08:05:51.559Z,41.05
2018-06-07T08:06:51.709Z,41.06
2018-06-07T08:07:51.535Z,40.67
2018-06-07T08:08:51.841Z,39.61
2018-06-07T08:10:52.032Z,40.31
2018-06-07T08:11:51.570Z,39.24
2018-06-07T08:12:51.971Z,39.62
2018-06-07T08:13:51.648Z,39.24
2018-06-07T08:14:51.504Z,39.24
2018-06-07T08:15:51.510Z,38.87
2018-06-07T08:16:51.737Z,38.96
2018-06-07T08:17:51.441Z,39.06
2018-06-07T08:18:51.430Z,39.55
2018-06-07T08:19:51.432Z,38.89
2018-06-07T08:20:51.470Z,39.20
2018-06-07T08:21:51.477Z,37.26
2018-06-07T08:22:51.733Z,37.84
2018-06-07T08:23:52.619Z,37.26
2018-06-07T08:24:51.405Z,38.50
2018-06-07T08:25:51.404Z,38.71
2018-06-07T08:26:51.448Z,38.62
2018-06-07T08:27:51.440Z,37.95
2018-06-07T08:28:51.681Z,38.73
2018-06-07T08:30:51.381Z,37.85
2018-06-07T08:31:51.382Z,37.06
2018-06-07T08:32:51.436Z,37.64
2018-06-07T08:33:51.425Z,38.32
2018-06-07T08:34:57.995Z,38.42
2018-06-07T08:35:51.961Z,38.44
2018-06-07T08:36:51.972Z,39.31
2018-06-07T08:37:51.956Z,38.36
2018-06-07T08:38:51.959Z,37.18
2018-06-07T08:39:57.659Z,38.65
2018-06-07T08:40:54.722Z,37.77
2018-06-07T08:41:51.351Z,37.39
2018-06-07T08:42:51.341Z,36.61
2018-06-07T08:43:51.388Z,36.49
2018-06-07T08:44:51.339Z,37.66
2018-06-07T08:45:51.385Z,38.05
2018-06-07T08:46:51.673Z,37.87
2018-06-07T08:47:51.331Z,37.39
2018-06-07T08:48:51.331Z,36.22
2018-06-07T08:49:51.338Z,36.32
2018-06-07T08:50:51.554Z,36.71
2018-06-07T08:51:51.366Z,37.39
2018-06-07T08:52:51.661Z,36.22
2018-06-07T08:53:51.408Z,37.97
2018-06-07T08:55:51.308Z,36.90
2018-06-07T08:57:51.358Z,35.34
2018-06-07T08:58:51.664Z,36.51
2018-06-07T08:59:51.354Z,36.41
2018-06-07T09:00:51.322Z,36.24
2018-06-07T09:01:51.305Z,36.33
2018-06-07T09:02:51.298Z,37.60
2018-06-07T09:03:51.348Z,37.52
2018-06-07T09:05:51.644Z,36.55
2018-06-07T09:06:51.400Z,37.21
2018-06-07T09:07:51.297Z,36.65
2018-06-07T09:08:51.302Z,35.55
2018-06-07T09:09:51.345Z,37.43
2018-06-07T09:10:51.397Z,35.77
2018-06-07T09:11:51.653Z,37.04
2018-06-07T09:13:10.899Z,36.45
2018-06-07T09:13:51.907Z,36.45
2018-06-07T09:15:04.346Z,37.15
2018-06-07T09:15:51.288Z,35.88
2018-06-07T09:16:51.454Z,35.59
2018-06-07T09:17:51.586Z,34.12
2018-06-07T09:18:51.553Z,35.80
2018-06-07T09:19:51.497Z,35.51
2018-06-07T09:20:51.298Z,35.24
2018-06-07T09:21:52.715Z,34.94
2018-06-07T09:22:51.286Z,33.97
2018-06-07T09:23:51.299Z,34.84
2018-06-07T09:24:51.668Z,35.04
2018-06-07T09:25:51.854Z,34.26
2018-06-07T09:26:51.345Z,33.98
2018-06-07T09:27:51.901Z,33.79
2018-06-07T09:28:51.306Z,34.77
2018-06-07T09:29:51.301Z,33.87
2018-06-07T09:30:51.301Z,33.85
2018-06-07T09:31:51.644Z,34.65
2018-06-07T09:32:51.339Z,34.36
2018-06-07T09:33:51.351Z,35.43
2018-06-07T09:34:51.300Z,33.97
2018-06-07T09:35:51.299Z,34.57
2018-06-07T09:36:51.319Z,34.57
2018-06-07T09:37:51.602Z,34.29
2018-06-07T09:38:51.397Z,34.80
2018-06-07T09:39:51.350Z,33.43
2018-06-07T09:40:51.308Z,34.09
2018-06-07T09:41:51.302Z,33.80
2018-06-07T09:42:51.369Z,34.58
2018-06-07T09:43:51.612Z,34.80
2018-06-07T09:44:51.365Z,34.11
2018-06-07T09:45:51.565Z,33.64
2018-06-07T09:46:51.360Z,33.45
2018-06-07T09:47:51.328Z,32.95
2018-06-07T09:48:51.546Z,33.46
2018-06-07T09:49:51.616Z,32.87
2018-06-07T09:50:51.327Z,30.90
2018-06-07T09:52:25.937Z,32.76
2018-06-07T09:52:51.977Z,33.54
2018-06-07T09:53:51.535Z,33.15
2018-06-07T09:54:51.548Z,32.63
2018-06-07T09:55:51.633Z,33.51
2018-06-07T09:56:51.364Z,34.00
2018-06-07T09:57:52.193Z,34.80
2018-06-07T09:58:51.561Z,33.80
2018-06-07T09:59:51.358Z,33.61
2018-06-07T10:00:52.756Z,34.11
2018-06-07T10:01:51.655Z,34.41
2018-06-07T10:02:51.347Z,33.15
2018-06-07T10:06:51.464Z,31.99
2018-06-07T10:07:51.665Z,31.98
2018-06-07T10:08:53.188Z,33.46
2018-06-07T10:09:51.604Z,33.17
2018-06-07T10:10:51.622Z,33.56
2018-06-07T10:11:51.391Z,31.90
2018-06-07T10:12:51.400Z,32.60
2018-06-07T10:13:51.489Z,31.32
2018-06-07T10:14:51.881Z,30.62
2018-06-07T10:15:51.408Z,32.65
2018-06-07T10:18:10.703Z,33.75
2018-06-07T10:18:51.644Z,33.56
2018-06-07T10:19:51.401Z,33.45
2018-06-07T10:20:52.256Z,33.95
2018-06-07T10:21:52.420Z,32.09
2018-06-07T10:22:52.034Z,33.26
2018-06-07T10:23:51.727Z,32.97
2018-06-07T10:24:51.771Z,32.97
2018-06-07T10:25:51.637Z,33.26
2018-06-07T10:26:52.144Z,31.99
2018-06-07T10:27:51.633Z,32.68
2018-06-07T10:28:52.039Z,33.48
2018-06-07T10:29:51.637Z,34.06
2018-06-07T10:30:52.853Z,33.87
2018-06-07T10:31:51.441Z,33.20
2018-06-07T10:32:51.994Z,32.12
2018-06-07T10:33:52.099Z,32.01
2018-06-07T10:34:51.757Z,32.99
2018-06-07T10:35:51.459Z,32.97
2018-06-07T10:36:51.462Z,33.07
2018-06-07T10:37:51.466Z,34.05
2018-06-07T10:38:51.516Z,33.26
2018-06-07T10:39:53.336Z,32.99
2018-06-07T10:41:51.528Z,33.90
2018-06-07T10:42:51.509Z,32.04
2018-06-07T10:43:52.112Z,32.14
2018-06-07T10:44:52.389Z,32.23
2018-06-07T10:45:51.603Z,32.74
2018-06-07T10:46:51.802Z,31.84
2018-06-07T10:47:51.564Z,32.63
2018-06-07T10:48:51.716Z,33.12
2018-06-07T10:49:54.555Z,33.02
2018-06-07T10:50:51.819Z,31.84
2018-06-07T10:51:51.975Z,32.04
2018-06-07T10:52:51.544Z,32.43
2018-06-07T10:53:51.529Z,32.15
2018-06-07T10:54:51.536Z,31.57
2018-06-07T10:55:51.540Z,32.06
2018-06-07T10:56:52.046Z,33.50
2018-06-07T10:57:58.911Z,31.73
2018-06-07T10:58:53.123Z,33.09
2018-06-07T10:59:52.978Z,32.03
2018-06-07T11:01:54.594Z,32.81
2018-06-07T11:03:04.303Z,31.45
2018-06-07T11:04:17.509Z,32.81
2018-06-07T11:04:51.571Z,33.02
2018-06-07T11:05:51.579Z,33.12
2018-06-07T11:06:51.584Z,33.72
2018-06-07T11:07:54.626Z,32.06
2018-06-07T11:08:52.099Z,32.76
2018-06-07T11:09:53.214Z,31.87
2018-06-07T11:10:51.602Z,30.88
2018-06-07T11:11:51.813Z,33.53
2018-06-07T11:12:51.615Z,32.54
2018-06-07T11:13:51.623Z,33.00
2018-06-07T11:14:51.921Z,32.04
2018-06-07T11:15:51.681Z,33.33
2018-06-07T11:16:51.889Z,31.94
2018-06-07T11:18:07.541Z,32.82
2018-06-07T11:18:51.641Z,32.84
2018-06-07T11:19:51.653Z,33.41
2018-06-07T11:20:51.960Z,33.23
2018-06-07T11:21:51.682Z,32.66
2018-06-07T11:22:51.721Z,31.86
2018-06-07T11:23:51.760Z,32.43
2018-06-07T11:24:51.736Z,33.12
2018-06-07T11:25:51.915Z,32.04
2018-06-07T11:26:51.983Z,32.82
2018-06-07T11:27:52.314Z,32.92
2018-06-07T11:28:51.708Z,31.35
2018-06-07T11:29:51.753Z,33.20
2018-06-07T11:30:52.001Z,32.12
2018-06-07T11:31:51.929Z,33.43
2018-06-07T11:32:53.443Z,33.85
2018-06-07T11:33:51.723Z,31.89
2018-06-07T11:34:51.722Z,31.40
2018-06-07T11:35:51.733Z,33.58
2018-06-07T11:36:51.795Z,32.10
2018-06-07T11:37:52.019Z,32.89
2018-06-07T11:38:52.103Z,31.81
2018-06-07T11:39:51.762Z,31.99
2018-06-07T11:40:52.408Z,30.91
2018-06-07T11:41:51.970Z,32.17
2018-06-07T11:42:52.118Z,33.05
2018-06-07T11:43:51.771Z,33.48
2018-06-07T11:44:52.080Z,31.89
2018-06-07T11:45:52.387Z,33.87
2018-06-07T11:46:52.389Z,34.18
2018-06-07T11:47:51.989Z,32.72
2018-06-07T11:48:51.903Z,30.17
2018-06-07T11:49:51.860Z,31.46
2018-06-07T11:50:52.168Z,31.64
2018-06-07T11:51:51.894Z,33.33
2018-06-07T11:53:53.068Z,30.47
2018-06-07T11:54:52.289Z,32.24
2018-06-07T11:56:52.149Z,30.55
2018-06-07T11:57:51.903Z,31.43
2018-06-07T11:58:51.875Z,31.82
2018-06-07T11:59:51.849Z,31.92
2018-06-07T12:00:51.853Z,31.12
2018-06-07T12:01:51.867Z,32.98
2018-06-07T12:02:52.221Z,34.10
2018-06-07T12:03:51.920Z,31.16
2018-06-07T12:04:52.137Z,31.23
2018-06-07T12:05:51.914Z,30.91
2018-06-07T12:06:51.894Z,31.48
2018-06-07T12:07:51.931Z,32.15
2018-06-07T12:08:53.823Z,32.14
2018-06-07T12:09:52.114Z,33.33
2018-06-07T12:11:52.916Z,33.02
2018-06-07T12:12:51.939Z,33.92
2018-06-07T12:13:51.934Z,34.74
2018-06-07T12:14:51.988Z,33.17
2018-06-07T12:15:52.096Z,33.64
2018-06-07T12:16:51.950Z,33.50
2018-06-07T12:17:51.952Z,34.20
2018-06-07T12:18:52.087Z,32.84
2018-06-07T12:19:52.176Z,33.65
2018-06-07T12:20:52.098Z,35.11
2018-06-07T12:21:52.513Z,34.64
2018-06-07T12:22:52.092Z,34.57
2018-06-07T12:23:52.071Z,33.97
2018-06-07T12:24:51.987Z,35.48
2018-06-07T12:25:51.992Z,38.48
2018-06-07T12:26:52.414Z,37.16
2018-06-07T12:27:52.048Z,36.14
2018-06-07T12:28:52.016Z,34.51
2018-06-07T12:29:52.047Z,33.85
2018-06-07T12:30:52.021Z,32.09
2018-06-07T12:31:52.013Z,33.18
2018-06-07T12:32:52.068Z,32.89
2018-06-07T12:33:52.378Z,33.64
2018-06-07T12:34:52.085Z,33.80
2018-06-07T12:35:52.040Z,34.59
2018-06-07T12:36:52.040Z,35.76
2018-06-07T12:38:52.101Z,34.01
2018-06-07T12:39:52.575Z,33.61
2018-06-07T12:40:52.098Z,35.17
2018-06-07T12:41:52.663Z,33.80
2018-06-07T12:42:54.648Z,33.41
2018-06-07T12:43:52.570Z,33.80
2018-06-07T12:44:52.075Z,33.70
2018-06-07T12:45:52.427Z,33.77
2018-06-07T12:46:52.160Z,37.81
2018-06-07T12:47:52.137Z,35.06
2018-06-07T12:48:52.295Z,34.18
2018-06-07T12:49:52.178Z,35.55
2018-06-07T12:51:52.405Z,35.39
2018-06-07T12:52:52.228Z,35.83
2018-06-07T12:53:52.659Z,34.47
2018-06-07T12:54:52.323Z,33.59
2018-06-07T12:55:52.140Z,33.59
2018-06-07T12:56:52.150Z,34.18
2018-06-07T12:57:52.636Z,33.58
2018-06-07T12:58:52.153Z,33.87
2018-06-07T12:59:52.362Z,34.16
2018-06-07T13:00:52.259Z,34.13
2018-06-07T13:01:52.294Z,34.15
2018-06-07T13:02:52.224Z,33.75
2018-06-07T13:03:52.461Z,34.05
2018-06-07T13:04:52.210Z,34.05
2018-06-07T13:05:53.040Z,34.54
2018-06-07T13:06:52.237Z,35.23
2018-06-07T13:07:52.172Z,35.74
2018-06-07T13:08:52.413Z,34.36
2018-06-07T13:09:52.552Z,35.05
2018-06-07T13:10:52.805Z,34.26
2018-06-07T13:12:52.402Z,33.77
2018-06-07T13:13:52.249Z,34.54
2018-06-07T13:14:52.219Z,35.42
2018-06-07T13:15:52.532Z,34.54
2018-06-07T13:16:52.268Z,34.15
2018-06-07T13:17:52.234Z,35.34
2018-06-07T13:18:52.327Z,34.56
2018-06-07T13:19:52.392Z,34.06
2018-06-07T13:21:52.903Z,34.46
2018-06-07T13:22:52.471Z,38.58
2018-06-07T13:23:52.389Z,33.67
2018-06-07T13:24:52.346Z,34.15
2018-06-07T13:25:53.671Z,34.54
2018-06-07T13:26:52.307Z,36.32
2018-06-07T13:27:52.572Z,34.85
2018-06-07T13:28:52.458Z,34.16
2018-06-07T13:29:52.339Z,33.95
2018-06-07T13:30:52.536Z,34.44
2018-06-07T13:31:52.290Z,34.05
2018-06-07T13:32:52.302Z,34.74
2018-06-07T13:33:52.593Z,37.01